sensor_id;sensor_type;location;lat;lon;timestamp;pressure;altitude;pressure_sealevel;temperature;humidity
62038;BME280;47991;42.974;12.082;2023-07-02T00:00:05;97202.52;;;19.14;89.85
62038;BME280;47991;42.974;12.082;2023-07-02T00:02:32;97205.83;;;19.11;89.93
62038;BME280;47991;42.974;12.082;2023-07-02T00:04:59;97207.25;;;19.06;89.97
62038;BME280;47991;42.974;12.082;2023-07-02T00:07:26;97209.69;;;19.01;89.93
62038;BME280;47991;42.974;12.082;2023-07-02T00:09:53;97209.97;;;18.97;89.87
62038;BME280;47991;42.974;12.082;2023-07-02T00:12:19;97206.48;;;18.96;89.65
62038;BME280;47991;42.974;12.082;2023-07-02T00:14:46;97205.32;;;18.93;89.47
62038;BME280;47991;42.974;12.082;2023-07-02T00:17:13;97205.21;;;18.86;89.71
62038;BME280;47991;42.974;12.082;2023-07-02T00:19:40;97204.34;;;18.86;89.54
62038;BME280;47991;42.974;12.082;2023-07-02T00:22:09;97197.83;;;18.84;89.44
62038;BME280;47991;42.974;12.082;2023-07-02T00:24:36;97196.27;;;18.81;89.36
62038;BME280;47991;42.974;12.082;2023-07-02T00:27:04;97193.25;;;18.80;89.52
62038;BME280;47991;42.974;12.082;2023-07-02T00:29:30;97191.19;;;18.79;89.60
62038;BME280;47991;42.974;12.082;2023-07-02T00:31:57;97189.38;;;18.77;89.32
62038;BME280;47991;42.974;12.082;2023-07-02T00:34:24;97188.99;;;18.72;89.13
62038;BME280;47991;42.974;12.082;2023-07-02T00:36:51;97191.34;;;18.69;89.42
62038;BME280;47991;42.974;12.082;2023-07-02T00:39:18;97187.15;;;18.68;89.29
62038;BME280;47991;42.974;12.082;2023-07-02T00:41:45;97189.66;;;18.67;89.48
62038;BME280;47991;42.974;12.082;2023-07-02T00:44:13;97190.93;;;18.67;89.27
62038;BME280;47991;42.974;12.082;2023-07-02T00:46:40;97189.92;;;18.64;88.77
62038;BME280;47991;42.974;12.082;2023-07-02T00:49:08;97186.25;;;18.55;88.87
62038;BME280;47991;42.974;12.082;2023-07-02T00:51:36;97184.41;;;18.48;89.35
62038;BME280;47991;42.974;12.082;2023-07-02T00:54:04;97188.63;;;18.46;89.71
62038;BME280;47991;42.974;12.082;2023-07-02T00:56:32;97190.33;;;18.48;89.60
62038;BME280;47991;42.974;12.082;2023-07-02T00:59:00;97193.65;;;18.46;89.47
62038;BME280;47991;42.974;12.082;2023-07-02T01:01:27;97194.77;;;18.43;89.72
62038;BME280;47991;42.974;12.082;2023-07-02T01:04:03;97194.80;;;18.40;89.46
62038;BME280;47991;42.974;12.082;2023-07-02T01:06:33;97194.48;;;18.34;89.78
62038;BME280;47991;42.974;12.082;2023-07-02T01:09:03;97203.52;;;18.30;89.76
62038;BME280;47991;42.974;12.082;2023-07-02T01:14:16;97206.58;;;18.12;89.31
62038;BME280;47991;42.974;12.082;2023-07-02T01:16:46;97205.28;;;18.02;89.49
62038;BME280;47991;42.974;12.082;2023-07-02T01:19:19;97208.07;;;17.95;89.85
62038;BME280;47991;42.974;12.082;2023-07-02T01:21:48;97208.10;;;17.86;89.99
62038;BME280;47991;42.974;12.082;2023-07-02T01:24:17;97205.52;;;17.82;90.10
62038;BME280;47991;42.974;12.082;2023-07-02T01:26:44;97204.58;;;17.80;90.37
62038;BME280;47991;42.974;12.082;2023-07-02T01:29:17;97199.15;;;17.83;90.33
62038;BME280;47991;42.974;12.082;2023-07-02T01:31:44;97203.20;;;17.82;90.51
62038;BME280;47991;42.974;12.082;2023-07-02T01:34:12;97202.45;;;17.82;90.53
62038;BME280;47991;42.974;12.082;2023-07-02T01:36:40;97200.55;;;17.84;90.51
62038;BME280;47991;42.974;12.082;2023-07-02T01:39:07;97197.11;;;17.82;90.45
62038;BME280;47991;42.974;12.082;2023-07-02T01:41:54;97196.20;;;17.79;90.45
62038;BME280;47991;42.974;12.082;2023-07-02T01:44:21;97199.33;;;17.78;90.47
62038;BME280;47991;42.974;12.082;2023-07-02T01:46:48;97203.06;;;17.78;90.29
62038;BME280;47991;42.974;12.082;2023-07-02T01:49:16;97204.09;;;17.79;90.06
62038;BME280;47991;42.974;12.082;2023-07-02T01:51:52;97198.27;;;17.78;89.72
62038;BME280;47991;42.974;12.082;2023-07-02T01:54:21;97198.02;;;17.73;89.41
62038;BME280;47991;42.974;12.082;2023-07-02T01:56:49;97199.64;;;17.68;89.17
62038;BME280;47991;42.974;12.082;2023-07-02T01:59:16;97197.16;;;17.65;89.02
62038;BME280;47991;42.974;12.082;2023-07-02T02:01:46;97194.14;;;17.56;89.10
62038;BME280;47991;42.974;12.082;2023-07-02T02:04:13;97190.06;;;17.50;88.67
62038;BME280;47991;42.974;12.082;2023-07-02T02:06:40;97190.47;;;17.47;88.78
62038;BME280;47991;42.974;12.082;2023-07-02T02:09:08;97186.13;;;17.42;89.02
62038;BME280;47991;42.974;12.082;2023-07-02T02:11:41;97182.27;;;17.38;88.96
62038;BME280;47991;42.974;12.082;2023-07-02T02:14:08;97185.28;;;17.36;89.07
62038;BME280;47991;42.974;12.082;2023-07-02T02:16:35;97185.33;;;17.35;89.47
62038;BME280;47991;42.974;12.082;2023-07-02T02:19:04;97190.23;;;17.37;89.49
62038;BME280;47991;42.974;12.082;2023-07-02T02:21:31;97191.83;;;17.37;89.57
62038;BME280;47991;42.974;12.082;2023-07-02T02:23:58;97192.80;;;17.36;89.62
62038;BME280;47991;42.974;12.082;2023-07-02T02:26:25;97197.35;;;17.34;90.07
62038;BME280;47991;42.974;12.082;2023-07-02T02:28:52;97194.16;;;17.36;90.09
62038;BME280;47991;42.974;12.082;2023-07-02T02:31:19;97194.20;;;17.38;90.16
62038;BME280;47991;42.974;12.082;2023-07-02T02:33:46;97191.36;;;17.38;89.93
62038;BME280;47991;42.974;12.082;2023-07-02T02:36:13;97192.40;;;17.36;89.96
62038;BME280;47991;42.974;12.082;2023-07-02T02:38:40;97193.34;;;17.33;90.02
62038;BME280;47991;42.974;12.082;2023-07-02T02:41:07;97193.67;;;17.31;90.04
62038;BME280;47991;42.974;12.082;2023-07-02T02:43:35;97189.59;;;17.27;89.98
62038;BME280;47991;42.974;12.082;2023-07-02T02:46:02;97186.17;;;17.14;89.40
62038;BME280;47991;42.974;12.082;2023-07-02T02:48:29;97184.98;;;17.02;90.28
62038;BME280;47991;42.974;12.082;2023-07-02T02:50:56;97181.80;;;17.01;90.45
62038;BME280;47991;42.974;12.082;2023-07-02T02:53:23;97181.69;;;16.97;90.24
62038;BME280;47991;42.974;12.082;2023-07-02T02:55:50;97182.73;;;16.95;90.36
62038;BME280;47991;42.974;12.082;2023-07-02T02:58:17;97183.69;;;16.97;90.19
62038;BME280;47991;42.974;12.082;2023-07-02T03:00:44;97183.58;;;16.96;90.32
62038;BME280;47991;42.974;12.082;2023-07-02T03:03:12;97188.09;;;16.95;90.39
62038;BME280;47991;42.974;12.082;2023-07-02T03:05:40;97189.63;;;16.96;90.41
62038;BME280;47991;42.974;12.082;2023-07-02T03:08:08;97190.64;;;16.97;90.52
62038;BME280;47991;42.974;12.082;2023-07-02T03:10:35;97189.27;;;16.96;90.18
62038;BME280;47991;42.974;12.082;2023-07-02T03:13:02;97192.45;;;16.91;89.90
62038;BME280;47991;42.974;12.082;2023-07-02T03:15:29;97193.67;;;16.89;90.22
62038;BME280;47991;42.974;12.082;2023-07-02T03:17:56;97196.06;;;16.87;90.03
62038;BME280;47991;42.974;12.082;2023-07-02T03:20:24;97199.77;;;16.82;89.92
62038;BME280;47991;42.974;12.082;2023-07-02T03:22:51;97196.80;;;16.81;90.33
62038;BME280;47991;42.974;12.082;2023-07-02T03:25:18;97199.74;;;16.74;89.70
62038;BME280;47991;42.974;12.082;2023-07-02T03:27:45;97200.23;;;16.65;90.11
62038;BME280;47991;42.974;12.082;2023-07-02T03:30:12;97201.28;;;16.63;90.12
62038;BME280;47991;42.974;12.082;2023-07-02T03:32:39;97201.39;;;16.59;90.19
62038;BME280;47991;42.974;12.082;2023-07-02T03:35:07;97202.97;;;16.53;90.25
62038;BME280;47991;42.974;12.082;2023-07-02T03:37:34;97201.02;;;16.50;90.28
62038;BME280;47991;42.974;12.082;2023-07-02T03:40:01;97206.91;;;16.50;90.39
62038;BME280;47991;42.974;12.082;2023-07-02T03:42:29;97212.64;;;16.53;90.24
62038;BME280;47991;42.974;12.082;2023-07-02T03:44:56;97210.17;;;16.58;90.24
62038;BME280;47991;42.974;12.082;2023-07-02T03:47:23;97217.27;;;16.59;90.09
62038;BME280;47991;42.974;12.082;2023-07-02T03:49:50;97223.88;;;16.56;89.81
62038;BME280;47991;42.974;12.082;2023-07-02T03:52:17;97224.66;;;16.55;90.04
62038;BME280;47991;42.974;12.082;2023-07-02T03:54:44;97232.27;;;16.55;89.79
62038;BME280;47991;42.974;12.082;2023-07-02T03:57:12;97230.64;;;16.56;89.93
62038;BME280;47991;42.974;12.082;2023-07-02T03:59:39;97232.31;;;16.55;89.76
62038;BME280;47991;42.974;12.082;2023-07-02T04:02:06;97235.27;;;16.50;90.16
62038;BME280;47991;42.974;12.082;2023-07-02T04:04:33;97237.66;;;16.46;90.52
62038;BME280;47991;42.974;12.082;2023-07-02T04:07:00;97239.07;;;16.43;90.27
62038;BME280;47991;42.974;12.082;2023-07-02T04:09:27;97242.00;;;16.42;90.48
62038;BME280;47991;42.974;12.082;2023-07-02T04:11:54;97244.81;;;16.46;90.67
62038;BME280;47991;42.974;12.082;2023-07-02T04:14:21;97245.20;;;16.57;90.77
62038;BME280;47991;42.974;12.082;2023-07-02T04:16:48;97240.91;;;16.66;90.39
62038;BME280;47991;42.974;12.082;2023-07-02T04:19:15;97238.08;;;16.72;90.23
62038;BME280;47991;42.974;12.082;2023-07-02T04:21:42;97241.72;;;16.76;89.90
62038;BME280;47991;42.974;12.082;2023-07-02T04:24:09;97240.80;;;16.76;89.94
62038;BME280;47991;42.974;12.082;2023-07-02T04:26:36;97243.73;;;16.78;89.93
62038;BME280;47991;42.974;12.082;2023-07-02T04:29:03;97244.99;;;16.84;89.98
62038;BME280;47991;42.974;12.082;2023-07-02T04:31:30;97251.69;;;16.92;89.81
62038;BME280;47991;42.974;12.082;2023-07-02T04:33:57;97245.91;;;16.98;89.98
62038;BME280;47991;42.974;12.082;2023-07-02T04:36:26;97243.73;;;17.02;89.60
62038;BME280;47991;42.974;12.082;2023-07-02T04:38:54;97244.74;;;17.00;89.69
62038;BME280;47991;42.974;12.082;2023-07-02T04:41:22;97245.43;;;17.00;89.84
62038;BME280;47991;42.974;12.082;2023-07-02T04:43:49;97247.36;;;17.06;89.53
62038;BME280;47991;42.974;12.082;2023-07-02T04:46:16;97250.88;;;17.13;89.82
62038;BME280;47991;42.974;12.082;2023-07-02T04:48:44;97250.25;;;17.23;89.73
62038;BME280;47991;42.974;12.082;2023-07-02T04:51:12;97253.08;;;17.32;89.88
62038;BME280;47991;42.974;12.082;2023-07-02T04:53:39;97258.07;;;17.90;89.54
62038;BME280;47991;42.974;12.082;2023-07-02T04:56:06;97260.72;;;18.37;87.88
62038;BME280;47991;42.974;12.082;2023-07-02T04:58:33;97258.71;;;18.40;87.63
62038;BME280;47991;42.974;12.082;2023-07-02T05:01:01;97259.74;;;18.43;87.30
62038;BME280;47991;42.974;12.082;2023-07-02T05:03:28;97260.91;;;18.60;86.76
62038;BME280;47991;42.974;12.082;2023-07-02T05:05:55;97259.23;;;18.63;86.72
62038;BME280;47991;42.974;12.082;2023-07-02T05:08:22;97256.36;;;18.68;86.55
62038;BME280;47991;42.974;12.082;2023-07-02T05:10:49;97254.13;;;18.81;85.96
62038;BME280;47991;42.974;12.082;2023-07-02T05:13:16;97250.18;;;19.34;84.59
62038;BME280;47991;42.974;12.082;2023-07-02T05:15:43;97252.75;;;20.43;82.13
62038;BME280;47991;42.974;12.082;2023-07-02T05:18:11;97249.94;;;21.37;78.74
62038;BME280;47991;42.974;12.082;2023-07-02T05:20:39;97252.51;;;21.96;76.47
62038;BME280;47991;42.974;12.082;2023-07-02T05:23:06;97250.92;;;22.19;74.55
62038;BME280;47991;42.974;12.082;2023-07-02T05:25:33;97249.76;;;22.53;74.14
62038;BME280;47991;42.974;12.082;2023-07-02T05:28:00;97249.52;;;22.73;72.50
62038;BME280;47991;42.974;12.082;2023-07-02T05:30:27;97251.93;;;22.42;72.70
62038;BME280;47991;42.974;12.082;2023-07-02T05:32:54;97259.27;;;21.34;72.99
62038;BME280;47991;42.974;12.082;2023-07-02T05:35:21;97270.48;;;20.43;77.02
62038;BME280;47991;42.974;12.082;2023-07-02T05:37:48;97275.10;;;20.11;79.38
62038;BME280;47991;42.974;12.082;2023-07-02T05:40:15;97273.02;;;20.00;80.32
62038;BME280;47991;42.974;12.082;2023-07-02T05:42:42;97273.31;;;19.93;80.69
62038;BME280;47991;42.974;12.082;2023-07-02T05:45:10;97276.78;;;19.86;81.27
62038;BME280;47991;42.974;12.082;2023-07-02T05:47:37;97272.05;;;19.79;81.49
62038;BME280;47991;42.974;12.082;2023-07-02T05:50:07;97274.28;;;19.75;81.99
62038;BME280;47991;42.974;12.082;2023-07-02T05:52:34;97279.45;;;19.76;82.54
62038;BME280;47991;42.974;12.082;2023-07-02T05:55:01;97278.48;;;19.74;83.11
62038;BME280;47991;42.974;12.082;2023-07-02T05:57:28;97280.92;;;19.78;83.60
62038;BME280;47991;42.974;12.082;2023-07-02T05:59:55;97280.30;;;19.84;83.94
62038;BME280;47991;42.974;12.082;2023-07-02T06:02:22;97280.45;;;19.92;83.85
62038;BME280;47991;42.974;12.082;2023-07-02T06:04:50;97282.09;;;20.03;84.07
62038;BME280;47991;42.974;12.082;2023-07-02T06:07:17;97278.73;;;20.20;84.14
62038;BME280;47991;42.974;12.082;2023-07-02T06:09:44;97284.94;;;20.35;83.89
62038;BME280;47991;42.974;12.082;2023-07-02T06:12:11;97286.27;;;20.55;83.66
62038;BME280;47991;42.974;12.082;2023-07-02T06:14:37;97283.88;;;20.77;83.93
62038;BME280;47991;42.974;12.082;2023-07-02T06:17:05;97283.32;;;21.12;83.72
62038;BME280;47991;42.974;12.082;2023-07-02T06:19:34;97282.71;;;21.40;83.11
62038;BME280;47991;42.974;12.082;2023-07-02T06:22:01;97287.72;;;21.41;83.31
62038;BME280;47991;42.974;12.082;2023-07-02T06:24:28;97291.44;;;21.53;83.00
62038;BME280;47991;42.974;12.082;2023-07-02T06:26:55;97289.61;;;21.82;82.84
62038;BME280;47991;42.974;12.082;2023-07-02T06:29:23;97292.60;;;21.83;80.85
62038;BME280;47991;42.974;12.082;2023-07-02T06:31:51;97295.23;;;21.58;77.02
62038;BME280;47991;42.974;12.082;2023-07-02T06:34:18;97299.23;;;21.48;80.39
62038;BME280;47991;42.974;12.082;2023-07-02T06:36:47;97297.35;;;21.58;80.87
62038;BME280;47991;42.974;12.082;2023-07-02T06:39:14;97298.09;;;21.89;79.88
62038;BME280;47991;42.974;12.082;2023-07-02T06:41:41;97296.15;;;21.79;78.33
62038;BME280;47991;42.974;12.082;2023-07-02T06:44:08;97298.27;;;22.09;79.75
62038;BME280;47991;42.974;12.082;2023-07-02T06:46:35;97293.86;;;22.27;79.92
62038;BME280;47991;42.974;12.082;2023-07-02T06:49:03;97292.77;;;22.36;77.31
62038;BME280;47991;42.974;12.082;2023-07-02T06:51:30;97294.64;;;22.48;78.27
62038;BME280;47991;42.974;12.082;2023-07-02T06:53:57;97294.98;;;22.64;76.95
62038;BME280;47991;42.974;12.082;2023-07-02T06:56:24;97300.89;;;22.77;76.88
62038;BME280;47991;42.974;12.082;2023-07-02T06:58:52;97296.73;;;23.00;77.67
62038;BME280;47991;42.974;12.082;2023-07-02T07:01:19;97294.86;;;23.16;77.40
62038;BME280;47991;42.974;12.082;2023-07-02T07:03:46;97297.27;;;23.44;76.25
62038;BME280;47991;42.974;12.082;2023-07-02T07:06:13;97296.11;;;23.59;75.37
62038;BME280;47991;42.974;12.082;2023-07-02T07:08:40;97299.70;;;23.59;73.97
62038;BME280;47991;42.974;12.082;2023-07-02T07:11:07;97302.42;;;23.57;73.94
62038;BME280;47991;42.974;12.082;2023-07-02T07:13:34;97304.73;;;23.45;73.11
62038;BME280;47991;42.974;12.082;2023-07-02T07:16:01;97305.98;;;23.37;73.29
62038;BME280;47991;42.974;12.082;2023-07-02T07:18:28;97311.38;;;23.29;73.49
62038;BME280;47991;42.974;12.082;2023-07-02T07:20:55;97315.33;;;23.43;72.43
62038;BME280;47991;42.974;12.082;2023-07-02T07:23:23;97311.93;;;23.72;71.94
62038;BME280;47991;42.974;12.082;2023-07-02T07:25:50;97309.97;;;23.69;71.15
62038;BME280;47991;42.974;12.082;2023-07-02T07:28:18;97314.11;;;23.57;72.32
62038;BME280;47991;42.974;12.082;2023-07-02T07:30:45;97315.72;;;23.47;72.77
62038;BME280;47991;42.974;12.082;2023-07-02T07:33:12;97321.55;;;23.28;73.14
62038;BME280;47991;42.974;12.082;2023-07-02T07:35:39;97323.94;;;23.13;73.72
62038;BME280;47991;42.974;12.082;2023-07-02T07:38:06;97325.87;;;23.03;74.17
62038;BME280;47991;42.974;12.082;2023-07-02T07:40:33;97329.01;;;23.00;74.50
62038;BME280;47991;42.974;12.082;2023-07-02T07:43:00;97327.16;;;23.05;74.63
62038;BME280;47991;42.974;12.082;2023-07-02T07:45:27;97327.38;;;23.07;74.62
62038;BME280;47991;42.974;12.082;2023-07-02T07:47:55;97331.56;;;23.12;74.45
62038;BME280;47991;42.974;12.082;2023-07-02T07:50:21;97335.49;;;23.21;74.19
62038;BME280;47991;42.974;12.082;2023-07-02T07:52:48;97330.34;;;23.37;74.18
62038;BME280;47991;42.974;12.082;2023-07-02T07:55:16;97321.54;;;23.77;73.19
62038;BME280;47991;42.974;12.082;2023-07-02T07:57:45;97322.11;;;23.94;71.94
62038;BME280;47991;42.974;12.082;2023-07-02T08:00:13;97319.23;;;23.98;70.87
62038;BME280;47991;42.974;12.082;2023-07-02T08:02:40;97318.48;;;23.88;69.81
62038;BME280;47991;42.974;12.082;2023-07-02T08:05:07;97321.36;;;23.75;68.46
62038;BME280;47991;42.974;12.082;2023-07-02T08:07:35;97321.02;;;23.96;69.20
62038;BME280;47991;42.974;12.082;2023-07-02T08:10:02;97323.33;;;24.00;68.84
62038;BME280;47991;42.974;12.082;2023-07-02T08:12:30;97321.05;;;24.23;69.10
62038;BME280;47991;42.974;12.082;2023-07-02T08:14:57;97320.08;;;24.20;67.02
62038;BME280;47991;42.974;12.082;2023-07-02T08:17:24;97322.08;;;24.02;67.33
62038;BME280;47991;42.974;12.082;2023-07-02T08:19:51;97322.49;;;23.97;67.17
62038;BME280;47991;42.974;12.082;2023-07-02T08:22:18;97325.27;;;24.09;69.01
62038;BME280;47991;42.974;12.082;2023-07-02T08:24:45;97322.27;;;24.32;68.35
62038;BME280;47991;42.974;12.082;2023-07-02T08:27:16;97320.48;;;24.38;68.18
62038;BME280;47991;42.974;12.082;2023-07-02T08:29:48;97320.27;;;24.36;66.78
62038;BME280;47991;42.974;12.082;2023-07-02T08:32:15;97319.23;;;24.37;67.32
62038;BME280;47991;42.974;12.082;2023-07-02T08:34:42;97321.73;;;24.18;67.32
62038;BME280;47991;42.974;12.082;2023-07-02T08:37:09;97321.95;;;24.25;68.48
62038;BME280;47991;42.974;12.082;2023-07-02T08:39:37;97323.60;;;24.47;67.06
62038;BME280;47991;42.974;12.082;2023-07-02T08:42:06;97323.52;;;24.54;67.38
62038;BME280;47991;42.974;12.082;2023-07-02T08:44:34;97328.66;;;24.67;66.82
62038;BME280;47991;42.974;12.082;2023-07-02T08:47:03;97326.86;;;24.82;66.04
62038;BME280;47991;42.974;12.082;2023-07-02T08:49:30;97325.52;;;24.75;64.81
62038;BME280;47991;42.974;12.082;2023-07-02T08:51:57;97330.17;;;24.76;64.91
62038;BME280;47991;42.974;12.082;2023-07-02T08:54:24;97330.51;;;24.70;63.79
62038;BME280;47991;42.974;12.082;2023-07-02T08:56:52;97330.73;;;24.70;64.22
62038;BME280;47991;42.974;12.082;2023-07-02T08:59:19;97333.34;;;24.71;62.75
62038;BME280;47991;42.974;12.082;2023-07-02T09:01:47;97335.34;;;24.71;64.12
62038;BME280;47991;42.974;12.082;2023-07-02T09:04:19;97338.44;;;24.90;65.62
62038;BME280;47991;42.974;12.082;2023-07-02T09:07:03;97340.23;;;25.04;64.60
62038;BME280;47991;42.974;12.082;2023-07-02T09:09:31;97341.39;;;25.03;65.18
62038;BME280;47991;42.974;12.082;2023-07-02T09:11:58;97344.52;;;25.12;63.91
62038;BME280;47991;42.974;12.082;2023-07-02T09:14:29;97344.96;;;25.53;63.05
62038;BME280;47991;42.974;12.082;2023-07-02T09:17:05;97343.06;;;25.82;63.90
62038;BME280;47991;42.974;12.082;2023-07-02T09:19:33;97345.77;;;25.83;64.29
62038;BME280;47991;42.974;12.082;2023-07-02T09:22:00;97344.61;;;25.82;63.18
62038;BME280;47991;42.974;12.082;2023-07-02T09:24:29;97342.77;;;25.82;63.00
62038;BME280;47991;42.974;12.082;2023-07-02T09:26:58;97337.41;;;25.66;60.52
62038;BME280;47991;42.974;12.082;2023-07-02T09:29:33;97341.70;;;25.47;60.99
62038;BME280;47991;42.974;12.082;2023-07-02T09:32:03;97344.41;;;25.40;62.46
62038;BME280;47991;42.974;12.082;2023-07-02T09:34:31;97341.00;;;25.68;62.37
62038;BME280;47991;42.974;12.082;2023-07-02T09:36:59;97342.77;;;25.72;60.62
62038;BME280;47991;42.974;12.082;2023-07-02T09:39:28;97344.00;;;25.82;61.98
62038;BME280;47991;42.974;12.082;2023-07-02T09:41:56;97338.52;;;25.86;61.59
62038;BME280;47991;42.974;12.082;2023-07-02T09:44:29;97339.61;;;26.09;61.15
62038;BME280;47991;42.974;12.082;2023-07-02T09:47:07;97339.95;;;26.09;61.10
62038;BME280;47991;42.974;12.082;2023-07-02T09:49:36;97340.61;;;26.19;61.08
62038;BME280;47991;42.974;12.082;2023-07-02T09:52:08;97338.83;;;26.57;60.44
62038;BME280;47991;42.974;12.082;2023-07-02T09:54:37;97337.37;;;26.97;59.06
62038;BME280;47991;42.974;12.082;2023-07-02T09:57:05;97339.09;;;27.22;58.01
62038;BME280;47991;42.974;12.082;2023-07-02T09:59:35;97334.11;;;27.39;57.16
62038;BME280;47991;42.974;12.082;2023-07-02T10:02:02;97332.46;;;27.69;57.05
62038;BME280;47991;42.974;12.082;2023-07-02T10:04:39;97330.77;;;27.87;54.13
62038;BME280;47991;42.974;12.082;2023-07-02T10:07:07;97331.39;;;27.94;54.74
62038;BME280;47991;42.974;12.082;2023-07-02T10:09:39;97333.36;;;28.26;54.66
62038;BME280;47991;42.974;12.082;2023-07-02T10:12:22;97331.99;;;28.42;52.00
62038;BME280;47991;42.974;12.082;2023-07-02T10:14:54;97329.11;;;28.43;52.63
62038;BME280;47991;42.974;12.082;2023-07-02T10:17:25;97329.77;;;28.54;53.44
62038;BME280;47991;42.974;12.082;2023-07-02T10:19:53;97333.04;;;28.54;52.26
62038;BME280;47991;42.974;12.082;2023-07-02T10:22:21;97333.48;;;28.24;53.34
62038;BME280;47991;42.974;12.082;2023-07-02T10:24:54;97333.03;;;28.32;55.14
62038;BME280;47991;42.974;12.082;2023-07-02T10:27:36;97337.11;;;28.07;54.70
62038;BME280;47991;42.974;12.082;2023-07-02T10:30:05;97339.48;;;27.85;55.17
62038;BME280;47991;42.974;12.082;2023-07-02T10:32:34;97335.71;;;27.64;55.66
62038;BME280;47991;42.974;12.082;2023-07-02T10:35:17;97336.77;;;27.55;54.31
62038;BME280;47991;42.974;12.082;2023-07-02T10:37:44;97336.63;;;27.57;53.79
62038;BME280;47991;42.974;12.082;2023-07-02T10:40:12;97335.73;;;27.86;55.50
62038;BME280;47991;42.974;12.082;2023-07-02T10:45:14;97336.58;;;28.48;53.69
62038;BME280;47991;42.974;12.082;2023-07-02T10:47:41;97333.84;;;28.50;54.52
62038;BME280;47991;42.974;12.082;2023-07-02T10:52:43;97332.98;;;28.96;53.02
62038;BME280;47991;42.974;12.082;2023-07-02T10:55:10;97336.80;;;29.18;51.18
62038;BME280;47991;42.974;12.082;2023-07-02T10:57:37;97333.61;;;29.15;51.28
62038;BME280;47991;42.974;12.082;2023-07-02T11:00:08;97333.64;;;29.03;50.43
62038;BME280;47991;42.974;12.082;2023-07-02T11:02:37;97333.91;;;29.09;51.55
62038;BME280;47991;42.974;12.082;2023-07-02T11:05:05;97333.45;;;28.88;49.74
62038;BME280;47991;42.974;12.082;2023-07-02T11:07:33;97336.56;;;28.40;50.21
62038;BME280;47991;42.974;12.082;2023-07-02T11:10:00;97337.05;;;28.50;52.43
62038;BME280;47991;42.974;12.082;2023-07-02T11:12:29;97335.09;;;28.74;51.81
62038;BME280;47991;42.974;12.082;2023-07-02T11:15:16;97335.39;;;28.72;51.62
62038;BME280;47991;42.974;12.082;2023-07-02T11:17:47;97334.16;;;28.51;51.04
62038;BME280;47991;42.974;12.082;2023-07-02T11:20:14;97332.46;;;28.39;50.84
62038;BME280;47991;42.974;12.082;2023-07-02T11:22:42;97332.75;;;28.51;51.36
62038;BME280;47991;42.974;12.082;2023-07-02T11:25:19;97331.96;;;28.28;49.95
62038;BME280;47991;42.974;12.082;2023-07-02T11:27:49;97333.79;;;28.60;51.98
62038;BME280;47991;42.974;12.082;2023-07-02T11:30:16;97335.44;;;28.95;51.75
62038;BME280;47991;42.974;12.082;2023-07-02T11:32:51;97336.41;;;29.13;50.86
62038;BME280;47991;42.974;12.082;2023-07-02T11:35:19;97334.71;;;29.28;51.18
62038;BME280;47991;42.974;12.082;2023-07-02T11:37:47;97333.84;;;29.50;50.82
62038;BME280;47991;42.974;12.082;2023-07-02T11:40:18;97329.27;;;29.52;48.33
62038;BME280;47991;42.974;12.082;2023-07-02T11:42:45;97328.59;;;29.03;48.84
62038;BME280;47991;42.974;12.082;2023-07-02T11:45:12;97328.38;;;28.96;49.95
62038;BME280;47991;42.974;12.082;2023-07-02T11:47:39;97327.45;;;28.98;50.49
62038;BME280;47991;42.974;12.082;2023-07-02T11:50:07;97329.38;;;29.29;51.02
62038;BME280;47991;42.974;12.082;2023-07-02T11:52:35;97323.22;;;29.54;50.68
62038;BME280;47991;42.974;12.082;2023-07-02T11:55:02;97324.78;;;29.76;50.58
62038;BME280;47991;42.974;12.082;2023-07-02T11:57:29;97320.91;;;29.96;48.76
62038;BME280;47991;42.974;12.082;2023-07-02T11:59:57;97323.98;;;29.93;48.80
62038;BME280;47991;42.974;12.082;2023-07-02T12:02:24;97326.01;;;30.02;49.06
62038;BME280;47991;42.974;12.082;2023-07-02T12:04:54;97324.01;;;30.07;48.43
62038;BME280;47991;42.974;12.082;2023-07-02T12:07:21;97321.22;;;30.18;47.74
62038;BME280;47991;42.974;12.082;2023-07-02T12:09:48;97324.42;;;30.27;47.34
62038;BME280;47991;42.974;12.082;2023-07-02T12:12:15;97328.66;;;30.34;47.97
62038;BME280;47991;42.974;12.082;2023-07-02T12:14:42;97328.38;;;30.37;46.63
62038;BME280;47991;42.974;12.082;2023-07-02T12:17:10;97328.95;;;30.21;47.06
62038;BME280;47991;42.974;12.082;2023-07-02T12:19:40;97329.29;;;29.96;47.08
62038;BME280;47991;42.974;12.082;2023-07-02T12:22:07;97321.58;;;29.98;47.92
62038;BME280;47991;42.974;12.082;2023-07-02T12:24:34;97322.04;;;29.77;47.87
62038;BME280;47991;42.974;12.082;2023-07-02T12:27:08;97326.20;;;29.49;49.30
62038;BME280;47991;42.974;12.082;2023-07-02T12:29:37;97319.56;;;29.61;49.48
62038;BME280;47991;42.974;12.082;2023-07-02T12:32:05;97317.48;;;29.58;49.59
62038;BME280;47991;42.974;12.082;2023-07-02T12:34:33;97318.52;;;29.38;47.96
62038;BME280;47991;42.974;12.082;2023-07-02T12:37:00;97315.77;;;29.27;49.30
62038;BME280;47991;42.974;12.082;2023-07-02T12:39:27;97310.19;;;29.47;49.48
62038;BME280;47991;42.974;12.082;2023-07-02T12:41:54;97307.99;;;29.71;49.36
62038;BME280;47991;42.974;12.082;2023-07-02T12:44:21;97307.76;;;29.85;48.71
62038;BME280;47991;42.974;12.082;2023-07-02T12:46:48;97302.03;;;29.92;48.14
62038;BME280;47991;42.974;12.082;2023-07-02T12:49:15;97296.58;;;30.03;48.17
62038;BME280;47991;42.974;12.082;2023-07-02T12:51:42;97302.45;;;30.02;48.19
62038;BME280;47991;42.974;12.082;2023-07-02T12:54:08;97304.38;;;29.50;46.96
62038;BME280;47991;42.974;12.082;2023-07-02T12:56:35;97302.26;;;29.54;46.57
62038;BME280;47991;42.974;12.082;2023-07-02T12:59:02;97301.23;;;29.23;46.63
62038;BME280;47991;42.974;12.082;2023-07-02T13:01:30;97302.31;;;29.23;47.89